METAR LOCAUX

2022/08/10 00:00 LFST 100000Z AUTO 01004KT CAVOK 19/08 Q1022 NOSIG
2022/08/09 23:50 EDSB 092350Z AUTO 01005KT 9999 // NCD 18/09 Q1022
2022/08/10 00:00 LFGA 100000Z AUTO VRB02KT CAVOK 19/08 Q1022
www.noaa.gov

Ne pas utiliser pour préparer ou effectuer un vol: Utilisez la documentation officielle disponible sur aviation.meteo.fr (Aéroweb)


"Le soleil du matin ne dure pas forcément toute la journée."

Animation satellite IR

Meteociel.fr

"Derrière chaque nuage se cache le ciel bleu."

Radar pluie

Infoclimat.fr

"Si tu veux l’arc-en-ciel, tu dois supporter la pluie."
Dolly Parton

Nébulosité (octas)

Meteociel.fr

"Le soleil est souvent obscurci par les nuages et la raison par les passions."
Démophile

Impacts de foudre

www.meteo60.fr

"Celui que frappe la foudre n'entend pas le tonnerre."

Vigilance météo

vigilance-meteo.fr

"Tout nuage n'enfante pas une tempête."
William Shakespeare

TAF locaux

2022/08/09 18:21 TAF LFST 091700Z 0918/1018 04015KT CAVOK TEMPO 0920/1010 36005KT
2022/08/09 18:27 TAF EDSB 091700Z 0918/1018 02012KT CAVOK BECMG 0918/0920 03006KT BECMG 1006/1008 02011KT PROB40 TEMPO 1011/1016 02015G25KT
www.noaa.gov

Ne pas utiliser pour préparer ou effectuer un vol: Utilisez la documentation officielle disponible sur aviation.meteo.fr (Aéroweb)


"Les jours où le ciel est gris, le soleil n'a pas disparu à tout jamais."
Arnaud Desjardins

Prévisions 7 jours


Meteoblue.com

"Quand les crapauds chantent, le beau temps s'avance !"